createdAt,value
2018-09-05T13:22:02.004Z,70.00
2018-09-05T13:25:04.968Z,73.50
2018-09-05T13:34:02.671Z,51.60
2018-09-05T13:45:11.660Z,52.20
2018-09-05T13:58:34.285Z,51.60
2018-09-05T14:04:14.541Z,50.40
2018-09-05T14:07:17.610Z,49.80
2018-09-05T14:10:20.568Z,49.70
2018-09-05T14:13:23.577Z,49.70
2018-09-05T14:16:26.486Z,49.10
2018-09-05T14:19:29.469Z,48.90
2018-09-05T14:22:32.658Z,50.40
2018-09-05T14:25:35.563Z,50.10
2018-09-05T14:28:38.554Z,49.80
2018-09-05T14:31:41.475Z,49.50
2018-09-05T14:34:44.362Z,50.50
2018-09-05T14:37:47.306Z,51.10
2018-09-05T14:40:50.259Z,51.20
2018-09-05T14:43:53.217Z,50.10
2018-09-05T14:46:56.076Z,51.40
2018-09-05T14:49:59.008Z,50.80
2018-09-05T14:53:01.996Z,51.30
2018-09-05T14:56:04.936Z,49.70
2018-09-05T14:59:07.830Z,48.10
2018-09-05T15:02:10.732Z,47.60
2018-09-05T15:05:13.621Z,46.40
2018-09-05T15:08:16.620Z,46.70
2018-09-05T15:11:19.676Z,47.30
2018-09-05T15:14:22.732Z,45.80
2018-09-05T15:17:25.686Z,46.30
2018-09-05T15:20:28.552Z,45.60
2018-09-05T15:23:31.599Z,45.40
2018-09-05T15:26:34.480Z,44.70
2018-09-05T15:29:37.361Z,45.40
2018-09-05T15:32:40.265Z,45.60
2018-09-05T15:35:43.321Z,45.00
2018-09-05T15:38:46.693Z,45.00
2018-09-05T15:41:49.564Z,44.60
2018-09-05T15:44:52.545Z,44.00
2018-09-05T15:47:55.591Z,44.00
2018-09-05T15:51:00.094Z,44.80
2018-09-05T15:54:03.234Z,44.20
2018-09-05T15:57:06.608Z,45.60
2018-09-05T16:00:09.598Z,46.80
2018-09-05T16:03:12.571Z,46.80
2018-09-05T16:06:15.594Z,46.00
2018-09-05T16:09:18.563Z,46.00
2018-09-05T16:12:21.485Z,46.50
2018-09-05T16:15:24.552Z,47.10
2018-09-05T16:18:27.414Z,47.40
2018-09-05T16:21:30.338Z,47.10
2018-09-05T16:24:34.094Z,46.80
2018-09-05T16:27:36.989Z,46.80
2018-09-05T16:30:39.925Z,49.20
2018-09-05T16:33:42.918Z,48.30
2018-09-05T16:36:45.833Z,48.60
2018-09-05T16:39:49.410Z,47.40
2018-09-05T16:42:52.333Z,48.00
2018-09-05T16:45:55.330Z,48.70
2018-09-05T16:48:58.260Z,50.10
2018-09-05T16:52:01.473Z,50.60
2018-09-05T16:55:04.830Z,51.40
2018-09-05T16:58:07.789Z,52.10
2018-09-05T17:01:10.748Z,52.90
2018-09-05T17:04:13.647Z,53.90
2018-09-05T17:07:16.687Z,55.10
2018-09-05T17:10:19.818Z,55.50
2018-09-05T17:13:22.844Z,55.90
2018-09-05T17:16:25.754Z,56.00
2018-09-05T17:19:28.751Z,56.20
2018-09-05T17:22:31.657Z,55.10
2018-09-05T17:25:34.550Z,55.70
2018-09-05T17:28:37.725Z,56.90
2018-09-05T17:31:40.680Z,56.30
2018-09-05T17:34:43.697Z,55.60
2018-09-05T17:37:46.589Z,56.10
2018-09-05T17:40:49.524Z,56.00
2018-09-05T17:43:52.714Z,56.30
2018-09-05T17:46:55.629Z,57.40
2018-09-05T17:49:58.531Z,56.20
2018-09-05T17:53:01.654Z,56.40
2018-09-05T17:56:04.683Z,56.80
2018-09-05T17:59:07.599Z,56.80
2018-09-05T18:02:10.520Z,56.90
2018-09-05T18:05:13.493Z,57.00
2018-09-05T18:08:16.468Z,56.80
2018-09-05T18:11:19.407Z,56.80
2018-09-05T18:14:22.432Z,56.60
2018-09-05T18:17:25.465Z,56.60
2018-09-05T18:20:28.802Z,56.70
2018-09-05T18:23:31.860Z,56.60
2018-09-05T18:26:34.833Z,56.40
2018-09-05T18:29:37.791Z,56.70
2018-09-05T18:32:40.844Z,56.60
2018-09-05T18:35:43.796Z,56.00
2018-09-05T18:38:47.415Z,56.00
2018-09-05T18:41:50.510Z,56.10
2018-09-05T18:44:53.543Z,56.00
2018-09-05T18:47:56.587Z,55.50
2018-09-05T18:50:59.527Z,56.10
2018-09-05T18:54:02.549Z,55.30
2018-09-05T18:57:05.715Z,55.30
2018-09-05T19:00:08.798Z,55.20
2018-09-05T19:03:11.754Z,55.20
2018-09-05T19:06:14.814Z,55.00
2018-09-05T19:09:18.604Z,54.80
2018-09-05T19:12:21.676Z,54.90
2018-09-05T19:15:25.012Z,55.00
2018-09-05T19:18:29.036Z,54.90
2018-09-05T19:21:32.838Z,54.80
2018-09-05T19:24:36.141Z,54.70
2018-09-05T19:27:39.680Z,54.70
2018-09-05T19:30:42.889Z,54.60
2018-09-05T19:33:47.530Z,54.70
2018-09-05T19:36:50.591Z,54.80
2018-09-05T19:39:53.636Z,54.70
2018-09-05T19:42:56.523Z,54.80
2018-09-05T19:45:59.448Z,54.80
2018-09-05T19:49:02.354Z,55.00
2018-09-05T19:52:05.344Z,54.80
2018-09-05T19:55:08.394Z,54.90
2018-09-05T19:58:11.274Z,55.00
2018-09-05T20:01:16.274Z,55.10
2018-09-05T20:04:20.233Z,55.30
2018-09-05T20:07:24.115Z,55.30
2018-09-05T20:10:29.520Z,55.20
2018-09-05T20:13:34.334Z,55.00
2018-09-05T20:16:37.819Z,55.00
2018-09-05T20:19:40.977Z,55.00
2018-09-05T20:22:44.056Z,54.90
2018-09-05T20:25:48.412Z,55.00
2018-09-05T20:28:51.416Z,55.10
2018-09-05T20:31:54.522Z,55.50
2018-09-05T20:34:57.645Z,55.70
2018-09-05T20:38:00.882Z,55.40
2018-09-05T20:41:04.149Z,55.60
2018-09-05T20:44:07.832Z,55.60
2018-09-05T20:47:12.747Z,55.40
2018-09-05T20:50:15.744Z,55.40
2018-09-05T20:53:21.207Z,55.50
2018-09-05T20:56:24.929Z,55.50
2018-09-05T20:59:28.413Z,55.40
2018-09-05T21:02:31.678Z,55.40
2018-09-05T21:05:36.318Z,55.50
2018-09-05T21:08:45.982Z,56.00
2018-09-05T21:11:50.815Z,55.70
2018-09-05T21:14:59.180Z,55.80
2018-09-05T21:18:03.049Z,55.90
2018-09-05T21:21:11.205Z,56.20
2018-09-05T21:24:15.226Z,56.00
2018-09-05T21:27:18.430Z,56.30
2018-09-05T21:30:21.462Z,56.30
2018-09-05T21:33:25.714Z,56.50
2018-09-05T21:36:28.704Z,56.30
2018-09-05T21:39:31.716Z,56.80
2018-09-05T21:42:34.641Z,56.80
2018-09-05T21:45:37.791Z,56.80
2018-09-05T21:48:40.780Z,56.40
2018-09-05T21:51:43.913Z,56.60
2018-09-05T21:54:46.910Z,56.60
2018-09-05T21:57:49.929Z,56.90
2018-09-05T22:00:52.977Z,57.00
2018-09-05T22:03:56.024Z,57.30
2018-09-05T22:06:59.477Z,57.10
2018-09-05T22:10:03.838Z,57.20
2018-09-05T22:13:09.057Z,57.90
2018-09-05T22:16:12.018Z,57.70
2018-09-05T22:19:15.203Z,58.00
2018-09-05T22:22:18.169Z,58.20
2018-09-05T22:25:21.479Z,58.50
2018-09-05T22:28:24.541Z,58.60
2018-09-05T22:31:27.589Z,58.40
2018-09-05T22:34:30.569Z,58.50
2018-09-05T22:37:33.629Z,58.90
2018-09-05T22:40:42.203Z,58.70
2018-09-05T22:44:02.462Z,58.70
2018-09-05T22:47:23.843Z,59.00
2018-09-05T22:51:15.581Z,58.90
2018-09-05T22:55:57.900Z,58.90
2018-09-05T22:59:23.493Z,58.90
2018-09-05T23:03:13.434Z,59.00
2018-09-05T23:06:31.425Z,59.10
2018-09-05T23:09:51.953Z,58.90
2018-09-05T23:13:12.269Z,59.00
2018-09-05T23:17:36.120Z,59.00
2018-09-05T23:21:01.072Z,59.00
2018-09-05T23:24:10.645Z,59.10
2018-09-05T23:27:13.609Z,59.00
2018-09-05T23:30:16.591Z,59.10
2018-09-05T23:33:19.594Z,59.20
2018-09-05T23:37:34.546Z,58.90
2018-09-05T23:47:38.996Z,59.30
